Conway, MA

11:22 PM EDT on September 18, 2014 (GMT -0400)
Harriman And West | Change Station
CLOSE
Current Station
Airport
Location: North Adams,
Elevation: 653 ft
Nearby Weather Stations

Elev 653 ft 42.70 °N, 73.17 °W | Updated 30 minutes ago

Partly Cloudy
Partly Cloudy
47 °F
Feels Like 47 °F
N
0
Wind Variable Wind from North

Today
High -- | Low -- °F
--% Chance of Precip.
Yesterday
High -- | Low -- °F
Precip. -- in
6:33 AM 6:55 PM
Waning Crescent, 22% visible
Pressure 30.17 in
Visibility 10.0 miles
Clouds Mostly Cloudy 3500 ft
Dew Point 45 °F
Humidity 93%
Rainfall 0.00 in
Snow Depth Not available.
UV 0 out of 12
Pollen 3.00 out of 12
Air Quality Not available.
Flu Activity Not available.
METAR KAQW 190252Z AUTO 00000KT 10SM BKN035 08/07 A3016 RMK AO2 SLP215 T00830072 51025

More Conditions Fewer Conditions

Pressure 30.17 in
Visibility 10.0 miles
Clouds Mostly Cloudy 3500 ft
Dew Point 45 °F
Humidity 93%
Rainfall 0.00 in
Snow Depth Not available.
UV 0 out of 12
Pollen 3.00 out of 12
Air Quality Not available.
Flu Activity Not available.
METAR KAQW 190252Z AUTO 00000KT 10SM BKN035 08/07 A3016 RMK AO2 SLP215 T00830072 51025

More Conditions Fewer Conditions

10-Day Weather Forecast

Almanac

Astronomy

Sep. 18, 2014 Rise Set
Actual Time 6:33 AM EDT 6:55 PM EDT
Civil Twilight 6:05 AM EDT 7:23 PM EDT
Nautical Twilight 5:32 AM EDT 7:56 PM EDT
Astronomical Twilight 4:58 AM EDT 8:30 PM EDT
Moon 1:18 AM EDT (9/18) 3:49 PM EDT (9/18)
Length of Visible Light 13h 17m
Length of Day
12h 21m
Tomorrow will be 2m 50s shorter.
Waning Crescent, 22% of the Moon is Illuminated
Today
Waning Crescent
Sep 24
New
Oct 1
First Quarter
Oct 8
Full
Oct 15
Last Quarter

Today's Extremes

State Highs State Lows

Community

WunderPhotos

Upload Photos

1,754,551 photos uploaded!

Nearby

Air Quality

  Air Quality AQ Index Pollutant
Thursday Good
PM2.5
Thursday Good
OZONE
Friday Good
PM2.5
Friday Good
OZONE

Snow Depth

Station Depth Elevation
No new snow has been reported.

Earthquake Activity

City Distance Mag. Time & Date
No recent earthquake activity has been reported nearby.
Minimum magnitude displayed is 2.5.

Coastal Water Temperatures

Place Temperature
No Stations Reporting

Nearby Weather Stations